Florence, Minnesota
Current Conditions -  °F | °C
As of 3:14 PM on Tuesday 25 Nov 2014 (Local Time) from KPQN Reporting Station
Clear Clear  
Wind Chill: 25°   Ceiling: Unl
Heat Index: 34°   Visibility: 10mi
Dew Point: 21°   Wind: 12mph
Humidity: 60%   Direction: 180°S
Pressure: 29.88"   Gusts: NA
Location:  44.1777°N, 96.0531°W
Report Text: KPQN 252114Z AUTO 18010KT 10SM CLR 01/M06 A2988 RMK AO2
Loading
Personal Weather Stations






























Interactive Weather Map New forecast layout! Learn more

10-Day Weather Forecast

Advertisements
Track Severe Weather on mobile